sensor_id;sensor_type;location;lat;lon;timestamp;temperature;humidity
38183;DHT22;23991;52.430;10.586;2023-06-04T00:01:57;14.10;45.90
38183;DHT22;23991;52.430;10.586;2023-06-04T00:04:24;13.90;45.90
38183;DHT22;23991;52.430;10.586;2023-06-04T00:06:50;13.80;46.20
38183;DHT22;23991;52.430;10.586;2023-06-04T00:09:15;13.80;45.70
38183;DHT22;23991;52.430;10.586;2023-06-04T00:11:41;13.80;45.80
38183;DHT22;23991;52.430;10.586;2023-06-04T00:14:06;13.80;46.50
38183;DHT22;23991;52.430;10.586;2023-06-04T00:16:32;13.70;47.10
38183;DHT22;23991;52.430;10.586;2023-06-04T00:19:01;13.70;46.90
38183;DHT22;23991;52.430;10.586;2023-06-04T00:21:26;13.60;46.90
38183;DHT22;23991;52.430;10.586;2023-06-04T00:23:52;13.50;47.50
38183;DHT22;23991;52.430;10.586;2023-06-04T00:26:17;13.50;47.60
38183;DHT22;23991;52.430;10.586;2023-06-04T00:28:43;13.50;48.00
38183;DHT22;23991;52.430;10.586;2023-06-04T00:31:09;13.50;48.20
38183;DHT22;23991;52.430;10.586;2023-06-04T00:33:35;13.50;48.40
38183;DHT22;23991;52.430;10.586;2023-06-04T00:36:02;13.40;48.80
38183;DHT22;23991;52.430;10.586;2023-06-04T00:38:27;13.30;48.30
38183;DHT22;23991;52.430;10.586;2023-06-04T00:40:53;13.30;48.30
38183;DHT22;23991;52.430;10.586;2023-06-04T00:43:18;13.30;48.50
38183;DHT22;23991;52.430;10.586;2023-06-04T00:45:44;13.20;48.10
38183;DHT22;23991;52.430;10.586;2023-06-04T00:48:10;13.20;49.20
38183;DHT22;23991;52.430;10.586;2023-06-04T00:50:36;13.10;49.60
38183;DHT22;23991;52.430;10.586;2023-06-04T00:53:04;13.00;49.40
38183;DHT22;23991;52.430;10.586;2023-06-04T00:55:30;12.90;49.60
38183;DHT22;23991;52.430;10.586;2023-06-04T00:57:57;12.80;50.40
38183;DHT22;23991;52.430;10.586;2023-06-04T01:00:22;12.80;50.50
38183;DHT22;23991;52.430;10.586;2023-06-04T01:02:49;12.80;50.70
38183;DHT22;23991;52.430;10.586;2023-06-04T01:05:25;12.80;50.70
38183;DHT22;23991;52.430;10.586;2023-06-04T01:07:54;12.80;50.80
38183;DHT22;23991;52.430;10.586;2023-06-04T01:10:20;12.80;50.40
38183;DHT22;23991;52.430;10.586;2023-06-04T01:12:47;12.80;50.20
38183;DHT22;23991;52.430;10.586;2023-06-04T01:15:13;12.70;50.10
38183;DHT22;23991;52.430;10.586;2023-06-04T01:17:44;12.60;49.90
38183;DHT22;23991;52.430;10.586;2023-06-04T01:27:56;12.50;50.60
38183;DHT22;23991;52.430;10.586;2023-06-04T01:30:25;12.40;51.20
38183;DHT22;23991;52.430;10.586;2023-06-04T01:32:53;12.40;51.10
38183;DHT22;23991;52.430;10.586;2023-06-04T01:35:20;12.40;51.40
38183;DHT22;23991;52.430;10.586;2023-06-04T01:37:45;12.30;51.80
38183;DHT22;23991;52.430;10.586;2023-06-04T01:40:11;12.30;51.50
38183;DHT22;23991;52.430;10.586;2023-06-04T01:42:37;12.20;51.10
38183;DHT22;23991;52.430;10.586;2023-06-04T01:45:03;12.20;52.00
38183;DHT22;23991;52.430;10.586;2023-06-04T01:47:29;12.20;52.00
38183;DHT22;23991;52.430;10.586;2023-06-04T01:49:54;12.10;52.40
38183;DHT22;23991;52.430;10.586;2023-06-04T01:52:20;12.00;52.90
38183;DHT22;23991;52.430;10.586;2023-06-04T01:54:46;11.90;52.30
38183;DHT22;23991;52.430;10.586;2023-06-04T01:57:14;11.90;52.30
38183;DHT22;23991;52.430;10.586;2023-06-04T01:59:39;11.80;52.50
38183;DHT22;23991;52.430;10.586;2023-06-04T02:02:06;11.70;52.10
38183;DHT22;23991;52.430;10.586;2023-06-04T02:04:32;11.60;52.00
38183;DHT22;23991;52.430;10.586;2023-06-04T02:06:57;11.70;52.20
38183;DHT22;23991;52.430;10.586;2023-06-04T02:09:25;11.70;52.20
38183;DHT22;23991;52.430;10.586;2023-06-04T02:11:51;11.70;52.40
38183;DHT22;23991;52.430;10.586;2023-06-04T02:14:16;11.60;53.20
38183;DHT22;23991;52.430;10.586;2023-06-04T02:16:42;11.60;52.80
38183;DHT22;23991;52.430;10.586;2023-06-04T02:19:07;11.60;53.10
38183;DHT22;23991;52.430;10.586;2023-06-04T02:21:33;11.60;53.00
38183;DHT22;23991;52.430;10.586;2023-06-04T02:23:58;11.60;53.50
38183;DHT22;23991;52.430;10.586;2023-06-04T02:26:24;11.50;53.40
38183;DHT22;23991;52.430;10.586;2023-06-04T02:28:50;11.40;54.30
38183;DHT22;23991;52.430;10.586;2023-06-04T02:31:16;11.40;54.20
38183;DHT22;23991;52.430;10.586;2023-06-04T02:33:41;11.40;54.30
38183;DHT22;23991;52.430;10.586;2023-06-04T02:36:07;11.30;54.70
38183;DHT22;23991;52.430;10.586;2023-06-04T02:38:34;11.30;55.00
38183;DHT22;23991;52.430;10.586;2023-06-04T02:41:00;11.30;55.50
38183;DHT22;23991;52.430;10.586;2023-06-04T02:43:25;11.30;55.20
38183;DHT22;23991;52.430;10.586;2023-06-04T02:45:51;11.30;55.40
38183;DHT22;23991;52.430;10.586;2023-06-04T02:48:16;11.20;54.70
38183;DHT22;23991;52.430;10.586;2023-06-04T02:50:42;11.20;54.50
38183;DHT22;23991;52.430;10.586;2023-06-04T02:53:10;11.20;54.70
38183;DHT22;23991;52.430;10.586;2023-06-04T02:55:35;11.20;54.70
38183;DHT22;23991;52.430;10.586;2023-06-04T02:58:01;11.10;54.70
38183;DHT22;23991;52.430;10.586;2023-06-04T03:00:28;11.10;55.00
38183;DHT22;23991;52.430;10.586;2023-06-04T03:02:54;11.10;55.20
38183;DHT22;23991;52.430;10.586;2023-06-04T03:05:26;11.10;55.80
38183;DHT22;23991;52.430;10.586;2023-06-04T03:07:52;11.10;55.90
38183;DHT22;23991;52.430;10.586;2023-06-04T03:10:18;11.00;56.20
38183;DHT22;23991;52.430;10.586;2023-06-04T03:12:44;11.00;56.20
38183;DHT22;23991;52.430;10.586;2023-06-04T03:15:10;10.90;56.40
38183;DHT22;23991;52.430;10.586;2023-06-04T03:17:37;10.90;56.40
38183;DHT22;23991;52.430;10.586;2023-06-04T03:20:02;10.90;56.30
38183;DHT22;23991;52.430;10.586;2023-06-04T03:22:30;10.90;56.40
38183;DHT22;23991;52.430;10.586;2023-06-04T03:24:55;10.90;56.40
38183;DHT22;23991;52.430;10.586;2023-06-04T03:27:21;10.90;56.50
38183;DHT22;23991;52.430;10.586;2023-06-04T03:29:47;10.90;56.20
38183;DHT22;23991;52.430;10.586;2023-06-04T03:32:13;10.90;56.30
38183;DHT22;23991;52.430;10.586;2023-06-04T03:34:39;11.00;56.80
38183;DHT22;23991;52.430;10.586;2023-06-04T03:37:06;11.00;55.80
38183;DHT22;23991;52.430;10.586;2023-06-04T03:39:31;11.00;55.80
38183;DHT22;23991;52.430;10.586;2023-06-04T03:41:57;11.10;56.10
38183;DHT22;23991;52.430;10.586;2023-06-04T03:44:22;11.00;56.10
38183;DHT22;23991;52.430;10.586;2023-06-04T03:46:48;11.10;56.10
38183;DHT22;23991;52.430;10.586;2023-06-04T03:49:13;11.10;56.00
38183;DHT22;23991;52.430;10.586;2023-06-04T03:51:41;11.20;56.30
38183;DHT22;23991;52.430;10.586;2023-06-04T03:54:06;11.30;56.00
38183;DHT22;23991;52.430;10.586;2023-06-04T03:56:32;11.30;56.10
38183;DHT22;23991;52.430;10.586;2023-06-04T03:58:58;11.40;55.70
38183;DHT22;23991;52.430;10.586;2023-06-04T04:01:24;11.40;56.00
38183;DHT22;23991;52.430;10.586;2023-06-04T04:03:50;11.40;56.40
38183;DHT22;23991;52.430;10.586;2023-06-04T04:06:17;11.50;56.30
38183;DHT22;23991;52.430;10.586;2023-06-04T04:08:43;11.60;56.10
38183;DHT22;23991;52.430;10.586;2023-06-04T04:11:13;11.60;55.90
38183;DHT22;23991;52.430;10.586;2023-06-04T04:13:38;11.70;55.70
38183;DHT22;23991;52.430;10.586;2023-06-04T04:16:04;11.70;55.30
38183;DHT22;23991;52.430;10.586;2023-06-04T04:18:34;11.80;54.90
38183;DHT22;23991;52.430;10.586;2023-06-04T04:21:00;11.90;54.20
38183;DHT22;23991;52.430;10.586;2023-06-04T04:23:26;11.90;54.30
38183;DHT22;23991;52.430;10.586;2023-06-04T04:25:52;12.00;54.00
38183;DHT22;23991;52.430;10.586;2023-06-04T04:28:19;12.00;54.10
38183;DHT22;23991;52.430;10.586;2023-06-04T04:30:46;12.10;54.10
38183;DHT22;23991;52.430;10.586;2023-06-04T04:33:12;12.20;53.70
38183;DHT22;23991;52.430;10.586;2023-06-04T04:35:41;12.40;53.70
38183;DHT22;23991;52.430;10.586;2023-06-04T04:38:07;12.50;52.10
38183;DHT22;23991;52.430;10.586;2023-06-04T04:40:33;12.70;51.20
38183;DHT22;23991;52.430;10.586;2023-06-04T04:42:59;12.80;51.00
38183;DHT22;23991;52.430;10.586;2023-06-04T04:45:24;12.90;51.30
38183;DHT22;23991;52.430;10.586;2023-06-04T04:47:50;13.00;51.00
38183;DHT22;23991;52.430;10.586;2023-06-04T04:50:18;13.10;51.00
38183;DHT22;23991;52.430;10.586;2023-06-04T04:52:44;13.20;51.70
38183;DHT22;23991;52.430;10.586;2023-06-04T04:55:10;13.30;51.60
38183;DHT22;23991;52.430;10.586;2023-06-04T04:57:37;13.30;51.10
38183;DHT22;23991;52.430;10.586;2023-06-04T05:00:03;13.50;50.70
38183;DHT22;23991;52.430;10.586;2023-06-04T05:02:31;13.60;50.70
38183;DHT22;23991;52.430;10.586;2023-06-04T05:04:56;13.60;50.40
38183;DHT22;23991;52.430;10.586;2023-06-04T05:07:22;13.70;50.50
38183;DHT22;23991;52.430;10.586;2023-06-04T05:09:48;13.80;51.00
38183;DHT22;23991;52.430;10.586;2023-06-04T05:12:14;13.90;50.90
38183;DHT22;23991;52.430;10.586;2023-06-04T05:14:40;14.00;50.60
38183;DHT22;23991;52.430;10.586;2023-06-04T05:17:07;14.10;50.70
38183;DHT22;23991;52.430;10.586;2023-06-04T05:19:34;14.30;50.70
38183;DHT22;23991;52.430;10.586;2023-06-04T05:22:00;14.40;50.60
38183;DHT22;23991;52.430;10.586;2023-06-04T05:24:28;14.40;50.90
38183;DHT22;23991;52.430;10.586;2023-06-04T05:26:54;14.50;51.10
38183;DHT22;23991;52.430;10.586;2023-06-04T05:29:22;14.80;50.40
38183;DHT22;23991;52.430;10.586;2023-06-04T05:31:47;14.80;50.30
38183;DHT22;23991;52.430;10.586;2023-06-04T05:34:13;15.00;49.30
38183;DHT22;23991;52.430;10.586;2023-06-04T05:36:42;15.10;48.60
38183;DHT22;23991;52.430;10.586;2023-06-04T05:39:08;15.10;48.30
38183;DHT22;23991;52.430;10.586;2023-06-04T05:41:35;15.30;48.60
38183;DHT22;23991;52.430;10.586;2023-06-04T05:44:01;15.60;48.90
38183;DHT22;23991;52.430;10.586;2023-06-04T05:46:27;15.50;47.40
38183;DHT22;23991;52.430;10.586;2023-06-04T05:48:52;15.60;47.90
38183;DHT22;23991;52.430;10.586;2023-06-04T05:51:19;15.80;47.30
38183;DHT22;23991;52.430;10.586;2023-06-04T05:53:45;16.10;47.10
38183;DHT22;23991;52.430;10.586;2023-06-04T05:56:11;16.50;45.90
38183;DHT22;23991;52.430;10.586;2023-06-04T05:58:36;16.70;45.30
38183;DHT22;23991;52.430;10.586;2023-06-04T06:01:02;16.90;44.30
38183;DHT22;23991;52.430;10.586;2023-06-04T06:03:28;17.10;43.70
38183;DHT22;23991;52.430;10.586;2023-06-04T06:05:54;17.00;43.60
38183;DHT22;23991;52.430;10.586;2023-06-04T06:08:20;17.20;44.10
38183;DHT22;23991;52.430;10.586;2023-06-04T06:10:46;17.40;43.80
38183;DHT22;23991;52.430;10.586;2023-06-04T06:13:12;17.60;43.60
38183;DHT22;23991;52.430;10.586;2023-06-04T06:15:38;17.70;44.60
38183;DHT22;23991;52.430;10.586;2023-06-04T06:18:04;17.70;43.30
38183;DHT22;23991;52.430;10.586;2023-06-04T06:20:30;18.00;43.60
38183;DHT22;23991;52.430;10.586;2023-06-04T06:22:55;18.30;42.70
38183;DHT22;23991;52.430;10.586;2023-06-04T06:25:21;18.30;42.20
38183;DHT22;23991;52.430;10.586;2023-06-04T06:27:46;18.40;42.40
38183;DHT22;23991;52.430;10.586;2023-06-04T06:30:13;18.60;41.80
38183;DHT22;23991;52.430;10.586;2023-06-04T06:32:40;18.60;41.30
38183;DHT22;23991;52.430;10.586;2023-06-04T06:35:05;18.80;41.00
38183;DHT22;23991;52.430;10.586;2023-06-04T06:37:33;18.80;41.20
38183;DHT22;23991;52.430;10.586;2023-06-04T06:39:58;19.00;41.80
38183;DHT22;23991;52.430;10.586;2023-06-04T06:42:24;19.30;41.10
38183;DHT22;23991;52.430;10.586;2023-06-04T06:44:49;19.40;41.10
38183;DHT22;23991;52.430;10.586;2023-06-04T06:47:16;19.80;40.20
38183;DHT22;23991;52.430;10.586;2023-06-04T06:49:41;20.10;39.40
38183;DHT22;23991;52.430;10.586;2023-06-04T06:52:07;20.40;39.00
38183;DHT22;23991;52.430;10.586;2023-06-04T06:54:33;20.60;38.80
38183;DHT22;23991;52.430;10.586;2023-06-04T06:56:58;20.80;37.50
38183;DHT22;23991;52.430;10.586;2023-06-04T06:59:24;21.00;37.60
38183;DHT22;23991;52.430;10.586;2023-06-04T07:01:50;21.40;36.20
38183;DHT22;23991;52.430;10.586;2023-06-04T07:04:16;21.50;35.70
38183;DHT22;23991;52.430;10.586;2023-06-04T07:06:41;21.80;36.30
38183;DHT22;23991;52.430;10.586;2023-06-04T07:09:07;22.20;36.70
38183;DHT22;23991;52.430;10.586;2023-06-04T07:11:33;22.40;35.60
38183;DHT22;23991;52.430;10.586;2023-06-04T07:13:59;22.40;35.00
38183;DHT22;23991;52.430;10.586;2023-06-04T07:16:27;22.90;34.20
38183;DHT22;23991;52.430;10.586;2023-06-04T07:18:52;23.20;33.60
38183;DHT22;23991;52.430;10.586;2023-06-04T07:21:18;23.40;32.20
38183;DHT22;23991;52.430;10.586;2023-06-04T07:23:46;23.60;32.10
38183;DHT22;23991;52.430;10.586;2023-06-04T07:26:15;23.90;31.80
38183;DHT22;23991;52.430;10.586;2023-06-04T07:28:40;24.10;31.60
38183;DHT22;23991;52.430;10.586;2023-06-04T07:31:06;24.30;31.90
38183;DHT22;23991;52.430;10.586;2023-06-04T07:33:32;24.80;30.80
38183;DHT22;23991;52.430;10.586;2023-06-04T07:35:57;25.10;29.80
38183;DHT22;23991;52.430;10.586;2023-06-04T07:38:23;25.20;29.30
38183;DHT22;23991;52.430;10.586;2023-06-04T07:40:49;25.40;29.30
38183;DHT22;23991;52.430;10.586;2023-06-04T07:43:15;25.90;29.30
38183;DHT22;23991;52.430;10.586;2023-06-04T07:45:40;26.20;28.30
38183;DHT22;23991;52.430;10.586;2023-06-04T07:48:06;26.50;27.50
38183;DHT22;23991;52.430;10.586;2023-06-04T07:50:32;26.50;26.90
38183;DHT22;23991;52.430;10.586;2023-06-04T07:52:57;26.70;26.40
38183;DHT22;23991;52.430;10.586;2023-06-04T07:55:23;26.80;26.50
38183;DHT22;23991;52.430;10.586;2023-06-04T07:57:48;27.00;27.10
38183;DHT22;23991;52.430;10.586;2023-06-04T08:00:14;27.50;26.70
38183;DHT22;23991;52.430;10.586;2023-06-04T08:02:40;27.70;26.20
38183;DHT22;23991;52.430;10.586;2023-06-04T08:05:06;28.00;25.70
38183;DHT22;23991;52.430;10.586;2023-06-04T08:07:31;28.00;25.60
38183;DHT22;23991;52.430;10.586;2023-06-04T08:09:57;28.30;24.80
38183;DHT22;23991;52.430;10.586;2023-06-04T08:12:23;28.60;25.20
38183;DHT22;23991;52.430;10.586;2023-06-04T08:14:48;28.90;24.20
38183;DHT22;23991;52.430;10.586;2023-06-04T08:17:15;29.00;23.80
38183;DHT22;23991;52.430;10.586;2023-06-04T08:19:41;29.20;24.00
38183;DHT22;23991;52.430;10.586;2023-06-04T08:22:07;29.30;23.40
38183;DHT22;23991;52.430;10.586;2023-06-04T08:24:34;29.40;23.50
38183;DHT22;23991;52.430;10.586;2023-06-04T08:27:00;29.70;22.40
38183;DHT22;23991;52.430;10.586;2023-06-04T08:29:26;29.90;23.00
38183;DHT22;23991;52.430;10.586;2023-06-04T08:31:51;30.30;22.40
38183;DHT22;23991;52.430;10.586;2023-06-04T08:34:17;30.50;22.80
38183;DHT22;23991;52.430;10.586;2023-06-04T08:36:42;30.90;21.40
38183;DHT22;23991;52.430;10.586;2023-06-04T08:39:08;31.20;21.30
38183;DHT22;23991;52.430;10.586;2023-06-04T08:44:07;31.40;20.60
38183;DHT22;23991;52.430;10.586;2023-06-04T08:46:38;31.70;20.10
38183;DHT22;23991;52.430;10.586;2023-06-04T08:49:07;31.90;19.60
38183;DHT22;23991;52.430;10.586;2023-06-04T08:51:35;32.00;19.10
38183;DHT22;23991;52.430;10.586;2023-06-04T08:54:04;32.30;19.00
38183;DHT22;23991;52.430;10.586;2023-06-04T08:56:30;32.60;19.20
38183;DHT22;23991;52.430;10.586;2023-06-04T08:59:01;32.70;18.90
38183;DHT22;23991;52.430;10.586;2023-06-04T09:01:27;33.00;18.60
38183;DHT22;23991;52.430;10.586;2023-06-04T09:03:52;32.90;19.00
38183;DHT22;23991;52.430;10.586;2023-06-04T09:06:18;33.10;18.50
38183;DHT22;23991;52.430;10.586;2023-06-04T09:08:44;33.50;18.30
38183;DHT22;23991;52.430;10.586;2023-06-04T09:11:13;33.60;18.00
38183;DHT22;23991;52.430;10.586;2023-06-04T09:13:40;33.40;17.50
38183;DHT22;23991;52.430;10.586;2023-06-04T09:16:05;33.60;17.20
38183;DHT22;23991;52.430;10.586;2023-06-04T09:18:32;33.20;17.50
38183;DHT22;23991;52.430;10.586;2023-06-04T09:21:15;33.40;17.10
38183;DHT22;23991;52.430;10.586;2023-06-04T09:23:45;33.40;16.90
38183;DHT22;23991;52.430;10.586;2023-06-04T09:26:11;33.20;16.30
38183;DHT22;23991;52.430;10.586;2023-06-04T09:28:43;33.80;17.00
38183;DHT22;23991;52.430;10.586;2023-06-04T09:31:18;33.80;16.60
38183;DHT22;23991;52.430;10.586;2023-06-04T09:33:50;34.30;16.60
38183;DHT22;23991;52.430;10.586;2023-06-04T09:36:16;34.70;16.50
38183;DHT22;23991;52.430;10.586;2023-06-04T09:38:42;34.90;16.30
38183;DHT22;23991;52.430;10.586;2023-06-04T09:41:17;35.40;15.40
38183;DHT22;23991;52.430;10.586;2023-06-04T09:43:46;35.00;15.70
38183;DHT22;23991;52.430;10.586;2023-06-04T09:46:17;35.40;15.80
38183;DHT22;23991;52.430;10.586;2023-06-04T09:48:44;35.60;15.50
38183;DHT22;23991;52.430;10.586;2023-06-04T09:51:14;35.80;15.30
38183;DHT22;23991;52.430;10.586;2023-06-04T09:53:54;35.90;15.40
38183;DHT22;23991;52.430;10.586;2023-06-04T09:56:20;36.00;15.10
38183;DHT22;23991;52.430;10.586;2023-06-04T09:58:48;35.80;15.60
38183;DHT22;23991;52.430;10.586;2023-06-04T10:01:14;36.20;14.80
38183;DHT22;23991;52.430;10.586;2023-06-04T10:03:45;36.40;14.90
38183;DHT22;23991;52.430;10.586;2023-06-04T10:06:14;36.50;14.50
38183;DHT22;23991;52.430;10.586;2023-06-04T10:08:42;36.70;15.00
38183;DHT22;23991;52.430;10.586;2023-06-04T10:11:09;36.80;15.00
38183;DHT22;23991;52.430;10.586;2023-06-04T10:13:48;37.10;14.60
38183;DHT22;23991;52.430;10.586;2023-06-04T10:16:17;36.60;14.40
38183;DHT22;23991;52.430;10.586;2023-06-04T10:18:43;36.70;14.80
38183;DHT22;23991;52.430;10.586;2023-06-04T10:21:10;37.00;14.80
38183;DHT22;23991;52.430;10.586;2023-06-04T10:23:38;37.00;14.40
38183;DHT22;23991;52.430;10.586;2023-06-04T10:26:04;37.00;13.70
38183;DHT22;23991;52.430;10.586;2023-06-04T10:28:30;37.10;13.10
38183;DHT22;23991;52.430;10.586;2023-06-04T10:30:56;37.20;13.30
38183;DHT22;23991;52.430;10.586;2023-06-04T10:33:22;37.30;12.50
38183;DHT22;23991;52.430;10.586;2023-06-04T10:35:50;37.20;13.30
38183;DHT22;23991;52.430;10.586;2023-06-04T10:38:16;37.60;13.00
38183;DHT22;23991;52.430;10.586;2023-06-04T10:40:44;37.70;12.90
38183;DHT22;23991;52.430;10.586;2023-06-04T10:43:14;37.60;12.80
38183;DHT22;23991;52.430;10.586;2023-06-04T10:45:41;37.70;12.80
38183;DHT22;23991;52.430;10.586;2023-06-04T10:48:09;37.60;13.10
38183;DHT22;23991;52.430;10.586;2023-06-04T10:50:36;37.70;12.90
38183;DHT22;23991;52.430;10.586;2023-06-04T10:53:12;37.70;13.00
38183;DHT22;23991;52.430;10.586;2023-06-04T10:55:44;37.60;13.10
38183;DHT22;23991;52.430;10.586;2023-06-04T10:58:10;37.70;13.50
38183;DHT22;23991;52.430;10.586;2023-06-04T11:00:40;37.70;13.20
38183;DHT22;23991;52.430;10.586;2023-06-04T11:03:08;37.90;12.80
38183;DHT22;23991;52.430;10.586;2023-06-04T11:05:42;38.00;12.90
38183;DHT22;23991;52.430;10.586;2023-06-04T11:08:08;37.90;13.20
38183;DHT22;23991;52.430;10.586;2023-06-04T11:10:37;38.10;13.40
38183;DHT22;23991;52.430;10.586;2023-06-04T11:13:04;38.20;13.30
38183;DHT22;23991;52.430;10.586;2023-06-04T11:15:40;38.40;13.00
38183;DHT22;23991;52.430;10.586;2023-06-04T11:18:06;38.10;13.60
38183;DHT22;23991;52.430;10.586;2023-06-04T11:20:32;38.10;13.10
38183;DHT22;23991;52.430;10.586;2023-06-04T11:22:59;38.40;13.40
38183;DHT22;23991;52.430;10.586;2023-06-04T11:25:26;38.50;13.90
38183;DHT22;23991;52.430;10.586;2023-06-04T11:27:53;38.70;13.70
38183;DHT22;23991;52.430;10.586;2023-06-04T11:30:19;38.90;13.80
38183;DHT22;23991;52.430;10.586;2023-06-04T11:32:48;39.00;13.50
38183;DHT22;23991;52.430;10.586;2023-06-04T11:35:14;38.90;12.90
38183;DHT22;23991;52.430;10.586;2023-06-04T11:37:40;38.70;13.10
38183;DHT22;23991;52.430;10.586;2023-06-04T11:40:16;38.90;13.30
38183;DHT22;23991;52.430;10.586;2023-06-04T11:42:43;38.90;13.00
38183;DHT22;23991;52.430;10.586;2023-06-04T11:45:10;39.10;13.20
38183;DHT22;23991;52.430;10.586;2023-06-04T11:47:36;39.00;12.20
38183;DHT22;23991;52.430;10.586;2023-06-04T11:50:01;38.90;12.40
38183;DHT22;23991;52.430;10.586;2023-06-04T11:52:27;39.10;13.00
38183;DHT22;23991;52.430;10.586;2023-06-04T11:54:53;38.80;13.50
38183;DHT22;23991;52.430;10.586;2023-06-04T11:57:19;38.80;12.90
38183;DHT22;23991;52.430;10.586;2023-06-04T11:59:45;39.00;13.00
38183;DHT22;23991;52.430;10.586;2023-06-04T12:02:10;39.10;12.60
38183;DHT22;23991;52.430;10.586;2023-06-04T12:04:36;39.10;12.60
38183;DHT22;23991;52.430;10.586;2023-06-04T12:07:03;39.10;12.70
38183;DHT22;23991;52.430;10.586;2023-06-04T12:09:32;39.10;12.60
38183;DHT22;23991;52.430;10.586;2023-06-04T12:12:09;39.10;12.60
38183;DHT22;23991;52.430;10.586;2023-06-04T12:14:35;39.20;12.90
38183;DHT22;23991;52.430;10.586;2023-06-04T12:17:02;39.20;12.70
38183;DHT22;23991;52.430;10.586;2023-06-04T12:19:30;39.30;12.40
38183;DHT22;23991;52.430;10.586;2023-06-04T12:22:04;39.30;12.60
38183;DHT22;23991;52.430;10.586;2023-06-04T12:24:34;39.20;12.70
38183;DHT22;23991;52.430;10.586;2023-06-04T12:27:10;39.30;12.80
38183;DHT22;23991;52.430;10.586;2023-06-04T12:29:37;39.30;12.20
38183;DHT22;23991;52.430;10.586;2023-06-04T12:32:05;39.40;13.00
38183;DHT22;23991;52.430;10.586;2023-06-04T12:34:31;39.40;12.50
38183;DHT22;23991;52.430;10.586;2023-06-04T12:36:57;39.30;12.50
38183;DHT22;23991;52.430;10.586;2023-06-04T12:39:22;39.30;12.80
38183;DHT22;23991;52.430;10.586;2023-06-04T12:41:48;39.30;13.50
38183;DHT22;23991;52.430;10.586;2023-06-04T12:44:14;39.40;12.50
38183;DHT22;23991;52.430;10.586;2023-06-04T12:46:39;39.50;12.70
38183;DHT22;23991;52.430;10.586;2023-06-04T12:49:05;39.40;12.40
38183;DHT22;23991;52.430;10.586;2023-06-04T12:51:31;39.60;12.80
38183;DHT22;23991;52.430;10.586;2023-06-04T12:53:57;39.60;12.30
38183;DHT22;23991;52.430;10.586;2023-06-04T12:56:23;39.50;12.50
38183;DHT22;23991;52.430;10.586;2023-06-04T12:58:49;39.40;12.50
38183;DHT22;23991;52.430;10.586;2023-06-04T13:01:15;39.40;12.40
38183;DHT22;23991;52.430;10.586;2023-06-04T13:03:40;39.50;12.60
38183;DHT22;23991;52.430;10.586;2023-06-04T13:06:06;39.60;12.50
38183;DHT22;23991;52.430;10.586;2023-06-04T13:08:32;39.70;12.40
38183;DHT22;23991;52.430;10.586;2023-06-04T13:10:58;39.80;12.70
38183;DHT22;23991;52.430;10.586;2023-06-04T13:13:24;39.80;12.40
38183;DHT22;23991;52.430;10.586;2023-06-04T13:15:49;39.70;12.10
38183;DHT22;23991;52.430;10.586;2023-06-04T13:18:15;39.60;12.20
38183;DHT22;23991;52.430;10.586;2023-06-04T13:20:41;39.50;12.70
38183;DHT22;23991;52.430;10.586;2023-06-04T13:23:07;39.30;12.20
38183;DHT22;23991;52.430;10.586;2023-06-04T13:25:33;38.80;12.40
38183;DHT22;23991;52.430;10.586;2023-06-04T13:28:00;39.10;12.30
38183;DHT22;23991;52.430;10.586;2023-06-04T13:30:25;39.00;12.60
38183;DHT22;23991;52.430;10.586;2023-06-04T13:32:52;38.90;12.90
38183;DHT22;23991;52.430;10.586;2023-06-04T13:35:17;39.10;12.70
38183;DHT22;23991;52.430;10.586;2023-06-04T13:37:43;39.10;12.70
38183;DHT22;23991;52.430;10.586;2023-06-04T13:40:09;39.60;12.50
38183;DHT22;23991;52.430;10.586;2023-06-04T13:42:35;39.50;12.30
38183;DHT22;23991;52.430;10.586;2023-06-04T13:45:00;39.10;12.70
38183;DHT22;23991;52.430;10.586;2023-06-04T13:47:26;39.10;12.70
38183;DHT22;23991;52.430;10.586;2023-06-04T13:49:52;39.10;12.90
38183;DHT22;23991;52.430;10.586;2023-06-04T13:52:17;39.10;12.80
38183;DHT22;23991;52.430;10.586;2023-06-04T13:54:43;39.10;12.40
38183;DHT22;23991;52.430;10.586;2023-06-04T13:57:09;39.10;12.80
38183;DHT22;23991;52.430;10.586;2023-06-04T13:59:38;39.00;13.10
38183;DHT22;23991;52.430;10.586;2023-06-04T14:02:04;39.00;12.60
38183;DHT22;23991;52.430;10.586;2023-06-04T14:04:30;38.70;12.80
38183;DHT22;23991;52.430;10.586;2023-06-04T14:06:56;39.10;12.60
38183;DHT22;23991;52.430;10.586;2023-06-04T14:09:21;39.10;13.00
38183;DHT22;23991;52.430;10.586;2023-06-04T14:11:47;39.10;12.80
38183;DHT22;23991;52.430;10.586;2023-06-04T14:14:16;38.80;12.90
38183;DHT22;23991;52.430;10.586;2023-06-04T14:16:45;38.30;12.90
38183;DHT22;23991;52.430;10.586;2023-06-04T14:19:11;38.30;13.60
38183;DHT22;23991;52.430;10.586;2023-06-04T14:21:37;38.50;13.40
38183;DHT22;23991;52.430;10.586;2023-06-04T14:24:03;38.70;13.70
38183;DHT22;23991;52.430;10.586;2023-06-04T14:26:28;38.70;13.30
38183;DHT22;23991;52.430;10.586;2023-06-04T14:28:55;38.70;13.30
38183;DHT22;23991;52.430;10.586;2023-06-04T14:31:21;38.40;13.60
38183;DHT22;23991;52.430;10.586;2023-06-04T14:33:46;38.30;13.00
38183;DHT22;23991;52.430;10.586;2023-06-04T14:36:12;38.40;13.40
38183;DHT22;23991;52.430;10.586;2023-06-04T14:38:38;38.10;13.30
38183;DHT22;23991;52.430;10.586;2023-06-04T14:41:04;38.10;13.60
38183;DHT22;23991;52.430;10.586;2023-06-04T14:43:29;38.00;13.30
38183;DHT22;23991;52.430;10.586;2023-06-04T14:45:55;37.90;13.50
38183;DHT22;23991;52.430;10.586;2023-06-04T14:48:20;37.80;13.30
38183;DHT22;23991;52.430;10.586;2023-06-04T14:50:46;37.70;13.40
38183;DHT22;23991;52.430;10.586;2023-06-04T14:53:18;37.60;14.10
38183;DHT22;23991;52.430;10.586;2023-06-04T14:55:44;37.60;13.70
38183;DHT22;23991;52.430;10.586;2023-06-04T14:58:10;37.40;14.10
38183;DHT22;23991;52.430;10.586;2023-06-04T15:00:36;37.60;13.50
38183;DHT22;23991;52.430;10.586;2023-06-04T15:03:02;37.20;14.30
38183;DHT22;23991;52.430;10.586;2023-06-04T15:05:27;37.30;14.80
38183;DHT22;23991;52.430;10.586;2023-06-04T15:07:53;37.20;14.30
38183;DHT22;23991;52.430;10.586;2023-06-04T15:10:19;37.10;14.40
38183;DHT22;23991;52.430;10.586;2023-06-04T15:12:45;36.70;14.80
38183;DHT22;23991;52.430;10.586;2023-06-04T15:15:11;36.70;14.50
38183;DHT22;23991;52.430;10.586;2023-06-04T15:17:36;36.60;14.40
38183;DHT22;23991;52.430;10.586;2023-06-04T15:20:05;36.70;14.70
38183;DHT22;23991;52.430;10.586;2023-06-04T15:22:33;36.60;14.80